sensor_id;sensor_type;location;lat;lon;timestamp;P1;durP1;ratioP1;P2;durP2;ratioP2
179;SDS011;78;48.788;9.010;2023-07-20T00:00:52;21.50;;;3.97;;
179;SDS011;78;48.788;9.010;2023-07-20T00:03:18;20.03;;;3.60;;
179;SDS011;78;48.788;9.010;2023-07-20T00:05:48;16.30;;;3.33;;
179;SDS011;78;48.788;9.010;2023-07-20T00:08:14;19.00;;;3.90;;
179;SDS011;78;48.788;9.010;2023-07-20T00:10:40;19.17;;;4.10;;
179;SDS011;78;48.788;9.010;2023-07-20T00:13:06;16.10;;;3.40;;
179;SDS011;78;48.788;9.010;2023-07-20T00:15:32;19.30;;;3.77;;
179;SDS011;78;48.788;9.010;2023-07-20T00:17:58;19.77;;;4.07;;
179;SDS011;78;48.788;9.010;2023-07-20T00:20:24;20.37;;;3.60;;
179;SDS011;78;48.788;9.010;2023-07-20T00:22:51;15.87;;;3.70;;
179;SDS011;78;48.788;9.010;2023-07-20T00:25:17;17.67;;;3.80;;
179;SDS011;78;48.788;9.010;2023-07-20T00:27:43;16.73;;;3.80;;
179;SDS011;78;48.788;9.010;2023-07-20T00:30:09;17.00;;;3.87;;
179;SDS011;78;48.788;9.010;2023-07-20T00:32:36;16.90;;;3.80;;
179;SDS011;78;48.788;9.010;2023-07-20T00:35:02;17.80;;;4.20;;
179;SDS011;78;48.788;9.010;2023-07-20T00:37:28;21.60;;;4.60;;
179;SDS011;78;48.788;9.010;2023-07-20T00:39:54;20.27;;;4.30;;
179;SDS011;78;48.788;9.010;2023-07-20T00:42:20;20.73;;;3.80;;
179;SDS011;78;48.788;9.010;2023-07-20T00:44:46;21.07;;;4.00;;
179;SDS011;78;48.788;9.010;2023-07-20T00:47:12;19.20;;;4.40;;
179;SDS011;78;48.788;9.010;2023-07-20T00:49:38;20.00;;;3.90;;
179;SDS011;78;48.788;9.010;2023-07-20T00:52:06;18.20;;;4.10;;
179;SDS011;78;48.788;9.010;2023-07-20T00:54:32;21.90;;;4.50;;
179;SDS011;78;48.788;9.010;2023-07-20T00:56:58;19.53;;;4.10;;
179;SDS011;78;48.788;9.010;2023-07-20T00:59:24;17.40;;;3.80;;
179;SDS011;78;48.788;9.010;2023-07-20T01:01:50;18.10;;;3.90;;
179;SDS011;78;48.788;9.010;2023-07-20T01:04:16;16.70;;;3.50;;
179;SDS011;78;48.788;9.010;2023-07-20T01:06:48;18.20;;;4.10;;
179;SDS011;78;48.788;9.010;2023-07-20T01:09:19;17.30;;;3.83;;
179;SDS011;78;48.788;9.010;2023-07-20T01:12:02;16.77;;;3.93;;
179;SDS011;78;48.788;9.010;2023-07-20T01:14:30;17.20;;;4.03;;
179;SDS011;78;48.788;9.010;2023-07-20T01:16:57;17.67;;;4.10;;
179;SDS011;78;48.788;9.010;2023-07-20T01:19:23;16.77;;;3.93;;
179;SDS011;78;48.788;9.010;2023-07-20T01:21:57;20.20;;;4.13;;
179;SDS011;78;48.788;9.010;2023-07-20T01:30:16;18.93;;;4.20;;
179;SDS011;78;48.788;9.010;2023-07-20T01:32:42;18.27;;;4.30;;
179;SDS011;78;48.788;9.010;2023-07-20T01:35:10;17.60;;;4.00;;
179;SDS011;78;48.788;9.010;2023-07-20T01:37:39;20.37;;;4.37;;
179;SDS011;78;48.788;9.010;2023-07-20T01:40:06;18.27;;;3.90;;
179;SDS011;78;48.788;9.010;2023-07-20T01:42:32;17.30;;;4.10;;
179;SDS011;78;48.788;9.010;2023-07-20T01:44:58;17.70;;;4.00;;
179;SDS011;78;48.788;9.010;2023-07-20T01:47:24;17.07;;;4.10;;
179;SDS011;78;48.788;9.010;2023-07-20T01:49:50;20.03;;;4.43;;
179;SDS011;78;48.788;9.010;2023-07-20T01:52:16;17.57;;;4.00;;
179;SDS011;78;48.788;9.010;2023-07-20T01:54:42;19.93;;;4.20;;
179;SDS011;78;48.788;9.010;2023-07-20T01:57:08;17.60;;;4.20;;
179;SDS011;78;48.788;9.010;2023-07-20T01:59:34;17.00;;;3.97;;
179;SDS011;78;48.788;9.010;2023-07-20T02:02:00;18.53;;;3.90;;
179;SDS011;78;48.788;9.010;2023-07-20T02:04:26;17.77;;;4.30;;
179;SDS011;78;48.788;9.010;2023-07-20T02:06:52;16.07;;;3.70;;
179;SDS011;78;48.788;9.010;2023-07-20T02:09:18;17.30;;;3.70;;
179;SDS011;78;48.788;9.010;2023-07-20T02:11:45;19.50;;;4.23;;
179;SDS011;78;48.788;9.010;2023-07-20T02:14:10;17.70;;;4.10;;
179;SDS011;78;48.788;9.010;2023-07-20T02:16:36;21.20;;;4.10;;
179;SDS011;78;48.788;9.010;2023-07-20T02:19:02;17.43;;;4.27;;
179;SDS011;78;48.788;9.010;2023-07-20T02:21:31;18.13;;;4.20;;
179;SDS011;78;48.788;9.010;2023-07-20T02:23:58;18.40;;;4.23;;
179;SDS011;78;48.788;9.010;2023-07-20T02:26:24;19.03;;;4.40;;
179;SDS011;78;48.788;9.010;2023-07-20T02:28:51;17.93;;;4.30;;
179;SDS011;78;48.788;9.010;2023-07-20T02:31:16;19.10;;;4.60;;
179;SDS011;78;48.788;9.010;2023-07-20T02:33:42;18.70;;;4.57;;
179;SDS011;78;48.788;9.010;2023-07-20T02:36:08;17.70;;;4.00;;
179;SDS011;78;48.788;9.010;2023-07-20T02:38:34;17.80;;;4.00;;
179;SDS011;78;48.788;9.010;2023-07-20T02:41:00;19.20;;;4.50;;
179;SDS011;78;48.788;9.010;2023-07-20T02:43:27;18.80;;;4.40;;
179;SDS011;78;48.788;9.010;2023-07-20T02:45:53;22.40;;;4.93;;
179;SDS011;78;48.788;9.010;2023-07-20T02:48:19;17.50;;;4.17;;
179;SDS011;78;48.788;9.010;2023-07-20T02:50:45;18.20;;;4.40;;
179;SDS011;78;48.788;9.010;2023-07-20T02:53:11;18.10;;;4.67;;
179;SDS011;78;48.788;9.010;2023-07-20T02:55:37;20.40;;;4.70;;
179;SDS011;78;48.788;9.010;2023-07-20T02:58:03;18.93;;;4.57;;
179;SDS011;78;48.788;9.010;2023-07-20T03:00:29;17.90;;;4.10;;
179;SDS011;78;48.788;9.010;2023-07-20T03:02:55;19.20;;;4.60;;
179;SDS011;78;48.788;9.010;2023-07-20T03:05:22;18.07;;;4.87;;
179;SDS011;78;48.788;9.010;2023-07-20T03:07:50;19.40;;;4.00;;
179;SDS011;78;48.788;9.010;2023-07-20T03:10:16;19.07;;;4.27;;
179;SDS011;78;48.788;9.010;2023-07-20T03:12:42;17.43;;;3.90;;
179;SDS011;78;48.788;9.010;2023-07-20T03:15:08;16.97;;;4.10;;
179;SDS011;78;48.788;9.010;2023-07-20T03:17:34;19.33;;;4.40;;
179;SDS011;78;48.788;9.010;2023-07-20T03:20:00;19.70;;;4.43;;
179;SDS011;78;48.788;9.010;2023-07-20T03:22:27;18.20;;;4.80;;
179;SDS011;78;48.788;9.010;2023-07-20T03:24:53;17.77;;;4.40;;
179;SDS011;78;48.788;9.010;2023-07-20T03:27:19;19.80;;;4.70;;
179;SDS011;78;48.788;9.010;2023-07-20T03:29:45;17.43;;;4.23;;
179;SDS011;78;48.788;9.010;2023-07-20T03:32:11;19.40;;;4.97;;
179;SDS011;78;48.788;9.010;2023-07-20T03:34:37;17.53;;;4.47;;
179;SDS011;78;48.788;9.010;2023-07-20T03:37:03;17.60;;;4.47;;
179;SDS011;78;48.788;9.010;2023-07-20T03:39:29;20.07;;;4.63;;
179;SDS011;78;48.788;9.010;2023-07-20T03:41:55;19.10;;;4.50;;
179;SDS011;78;48.788;9.010;2023-07-20T03:44:23;17.50;;;4.30;;
179;SDS011;78;48.788;9.010;2023-07-20T03:46:49;19.03;;;4.53;;
179;SDS011;78;48.788;9.010;2023-07-20T03:49:15;17.13;;;4.20;;
179;SDS011;78;48.788;9.010;2023-07-20T03:51:41;17.77;;;4.50;;
179;SDS011;78;48.788;9.010;2023-07-20T03:54:07;20.93;;;4.47;;
179;SDS011;78;48.788;9.010;2023-07-20T03:56:33;19.00;;;4.87;;
179;SDS011;78;48.788;9.010;2023-07-20T03:59:00;19.03;;;4.60;;
179;SDS011;78;48.788;9.010;2023-07-20T04:01:26;19.23;;;4.50;;
179;SDS011;78;48.788;9.010;2023-07-20T04:03:52;20.70;;;4.40;;
179;SDS011;78;48.788;9.010;2023-07-20T04:06:18;18.10;;;4.70;;
179;SDS011;78;48.788;9.010;2023-07-20T04:08:44;18.87;;;4.40;;
179;SDS011;78;48.788;9.010;2023-07-20T04:11:12;19.83;;;4.70;;
179;SDS011;78;48.788;9.010;2023-07-20T04:13:38;17.63;;;4.30;;
179;SDS011;78;48.788;9.010;2023-07-20T04:16:04;22.00;;;4.50;;
179;SDS011;78;48.788;9.010;2023-07-20T04:18:30;17.83;;;4.70;;
179;SDS011;78;48.788;9.010;2023-07-20T04:20:56;20.60;;;5.30;;
179;SDS011;78;48.788;9.010;2023-07-20T04:23:22;20.17;;;5.00;;
179;SDS011;78;48.788;9.010;2023-07-20T04:25:48;19.23;;;4.73;;
179;SDS011;78;48.788;9.010;2023-07-20T04:28:14;20.63;;;4.83;;
179;SDS011;78;48.788;9.010;2023-07-20T04:30:40;19.80;;;5.10;;
179;SDS011;78;48.788;9.010;2023-07-20T04:33:06;22.67;;;5.30;;
179;SDS011;78;48.788;9.010;2023-07-20T04:35:49;19.17;;;4.90;;
179;SDS011;78;48.788;9.010;2023-07-20T04:38:15;24.50;;;5.00;;
179;SDS011;78;48.788;9.010;2023-07-20T04:40:43;19.30;;;4.87;;
179;SDS011;78;48.788;9.010;2023-07-20T04:43:09;19.13;;;4.90;;
179;SDS011;78;48.788;9.010;2023-07-20T04:45:35;19.70;;;5.20;;
179;SDS011;78;48.788;9.010;2023-07-20T04:48:01;18.63;;;4.93;;
179;SDS011;78;48.788;9.010;2023-07-20T04:50:29;18.97;;;5.13;;
179;SDS011;78;48.788;9.010;2023-07-20T04:52:55;18.87;;;5.03;;
179;SDS011;78;48.788;9.010;2023-07-20T04:55:21;20.07;;;4.80;;
179;SDS011;78;48.788;9.010;2023-07-20T04:57:47;20.50;;;4.80;;
179;SDS011;78;48.788;9.010;2023-07-20T05:00:13;20.53;;;4.90;;
179;SDS011;78;48.788;9.010;2023-07-20T05:02:40;20.77;;;5.10;;
179;SDS011;78;48.788;9.010;2023-07-20T05:05:06;18.77;;;4.97;;
179;SDS011;78;48.788;9.010;2023-07-20T05:07:32;18.13;;;4.63;;
179;SDS011;78;48.788;9.010;2023-07-20T05:09:58;20.27;;;4.60;;
179;SDS011;78;48.788;9.010;2023-07-20T05:12:25;19.37;;;4.60;;
179;SDS011;78;48.788;9.010;2023-07-20T05:14:51;21.67;;;4.57;;
179;SDS011;78;48.788;9.010;2023-07-20T05:17:18;19.47;;;4.20;;
179;SDS011;78;48.788;9.010;2023-07-20T05:19:44;18.23;;;4.13;;
179;SDS011;78;48.788;9.010;2023-07-20T05:22:12;20.20;;;4.00;;
179;SDS011;78;48.788;9.010;2023-07-20T05:24:39;19.13;;;4.30;;
179;SDS011;78;48.788;9.010;2023-07-20T05:27:05;20.23;;;4.30;;
179;SDS011;78;48.788;9.010;2023-07-20T05:29:32;19.67;;;4.20;;
179;SDS011;78;48.788;9.010;2023-07-20T05:31:58;17.83;;;4.20;;
179;SDS011;78;48.788;9.010;2023-07-20T05:34:24;19.03;;;4.00;;
179;SDS011;78;48.788;9.010;2023-07-20T05:36:50;19.10;;;4.17;;
179;SDS011;78;48.788;9.010;2023-07-20T05:39:16;17.80;;;4.13;;
179;SDS011;78;48.788;9.010;2023-07-20T05:41:43;18.30;;;4.07;;
179;SDS011;78;48.788;9.010;2023-07-20T05:44:09;17.90;;;4.07;;
179;SDS011;78;48.788;9.010;2023-07-20T05:46:35;21.27;;;3.97;;
179;SDS011;78;48.788;9.010;2023-07-20T05:49:01;18.20;;;3.93;;
179;SDS011;78;48.788;9.010;2023-07-20T05:51:27;21.93;;;4.03;;
179;SDS011;78;48.788;9.010;2023-07-20T05:53:53;21.73;;;4.40;;
179;SDS011;78;48.788;9.010;2023-07-20T05:56:19;18.20;;;3.70;;
179;SDS011;78;48.788;9.010;2023-07-20T05:58:45;23.33;;;3.97;;
179;SDS011;78;48.788;9.010;2023-07-20T06:01:11;31.00;;;4.27;;
179;SDS011;78;48.788;9.010;2023-07-20T06:03:37;18.83;;;3.80;;
179;SDS011;78;48.788;9.010;2023-07-20T06:06:03;26.70;;;4.17;;
179;SDS011;78;48.788;9.010;2023-07-20T06:08:32;30.77;;;4.33;;
179;SDS011;78;48.788;9.010;2023-07-20T06:10:58;34.43;;;4.40;;
179;SDS011;78;48.788;9.010;2023-07-20T06:13:24;29.37;;;4.03;;
179;SDS011;78;48.788;9.010;2023-07-20T06:15:50;20.40;;;4.00;;
179;SDS011;78;48.788;9.010;2023-07-20T06:18:16;21.27;;;4.00;;
179;SDS011;78;48.788;9.010;2023-07-20T06:20:42;28.27;;;4.53;;
179;SDS011;78;48.788;9.010;2023-07-20T06:23:08;27.33;;;4.17;;
179;SDS011;78;48.788;9.010;2023-07-20T06:25:34;28.07;;;4.30;;
179;SDS011;78;48.788;9.010;2023-07-20T06:28:00;25.93;;;4.50;;
179;SDS011;78;48.788;9.010;2023-07-20T06:30:26;26.00;;;4.30;;
179;SDS011;78;48.788;9.010;2023-07-20T06:32:52;34.80;;;4.80;;
179;SDS011;78;48.788;9.010;2023-07-20T06:35:18;20.70;;;3.50;;
179;SDS011;78;48.788;9.010;2023-07-20T06:37:44;36.33;;;4.10;;
179;SDS011;78;48.788;9.010;2023-07-20T06:40:10;26.93;;;4.73;;
179;SDS011;78;48.788;9.010;2023-07-20T06:42:37;21.20;;;4.10;;
179;SDS011;78;48.788;9.010;2023-07-20T06:45:03;20.53;;;4.10;;
179;SDS011;78;48.788;9.010;2023-07-20T06:47:29;22.50;;;3.97;;
179;SDS011;78;48.788;9.010;2023-07-20T06:49:55;22.83;;;3.93;;
179;SDS011;78;48.788;9.010;2023-07-20T06:52:23;21.90;;;4.27;;
179;SDS011;78;48.788;9.010;2023-07-20T06:54:49;22.27;;;4.00;;
179;SDS011;78;48.788;9.010;2023-07-20T06:57:15;23.03;;;4.00;;
179;SDS011;78;48.788;9.010;2023-07-20T06:59:41;20.43;;;4.30;;
179;SDS011;78;48.788;9.010;2023-07-20T07:02:08;20.43;;;4.00;;
179;SDS011;78;48.788;9.010;2023-07-20T07:04:34;20.87;;;4.30;;
179;SDS011;78;48.788;9.010;2023-07-20T07:07:00;18.50;;;4.03;;
179;SDS011;78;48.788;9.010;2023-07-20T07:09:26;20.97;;;4.00;;
179;SDS011;78;48.788;9.010;2023-07-20T07:11:52;23.10;;;3.90;;
179;SDS011;78;48.788;9.010;2023-07-20T07:14:18;23.10;;;4.10;;
179;SDS011;78;48.788;9.010;2023-07-20T07:16:44;22.00;;;3.63;;
179;SDS011;78;48.788;9.010;2023-07-20T07:19:10;17.90;;;3.97;;
179;SDS011;78;48.788;9.010;2023-07-20T07:21:36;19.37;;;3.73;;
179;SDS011;78;48.788;9.010;2023-07-20T07:24:02;21.67;;;4.47;;
179;SDS011;78;48.788;9.010;2023-07-20T07:26:28;20.57;;;4.10;;
179;SDS011;78;48.788;9.010;2023-07-20T07:28:55;20.63;;;4.00;;
179;SDS011;78;48.788;9.010;2023-07-20T07:31:21;22.90;;;4.27;;
179;SDS011;78;48.788;9.010;2023-07-20T07:33:48;18.10;;;3.87;;
179;SDS011;78;48.788;9.010;2023-07-20T07:36:14;17.93;;;4.37;;
179;SDS011;78;48.788;9.010;2023-07-20T07:38:40;16.77;;;3.90;;
179;SDS011;78;48.788;9.010;2023-07-20T07:41:06;20.03;;;3.97;;
179;SDS011;78;48.788;9.010;2023-07-20T07:43:32;19.53;;;3.80;;
179;SDS011;78;48.788;9.010;2023-07-20T07:46:00;18.80;;;3.80;;
179;SDS011;78;48.788;9.010;2023-07-20T07:48:26;19.80;;;4.10;;
179;SDS011;78;48.788;9.010;2023-07-20T07:50:53;22.67;;;4.20;;
179;SDS011;78;48.788;9.010;2023-07-20T07:53:20;19.60;;;3.93;;
179;SDS011;78;48.788;9.010;2023-07-20T07:55:49;22.13;;;4.07;;
179;SDS011;78;48.788;9.010;2023-07-20T07:58:16;19.73;;;3.63;;
179;SDS011;78;48.788;9.010;2023-07-20T08:00:42;19.23;;;4.47;;
179;SDS011;78;48.788;9.010;2023-07-20T08:03:10;19.27;;;3.90;;
179;SDS011;78;48.788;9.010;2023-07-20T08:05:36;17.87;;;3.70;;
179;SDS011;78;48.788;9.010;2023-07-20T08:08:03;16.90;;;3.90;;
179;SDS011;78;48.788;9.010;2023-07-20T08:10:29;16.40;;;3.87;;
179;SDS011;78;48.788;9.010;2023-07-20T08:12:56;17.00;;;3.90;;
179;SDS011;78;48.788;9.010;2023-07-20T08:15:22;18.20;;;3.73;;
179;SDS011;78;48.788;9.010;2023-07-20T08:17:48;16.97;;;3.90;;
179;SDS011;78;48.788;9.010;2023-07-20T08:20:17;17.70;;;3.60;;
179;SDS011;78;48.788;9.010;2023-07-20T08:22:44;19.37;;;4.17;;
179;SDS011;78;48.788;9.010;2023-07-20T08:25:10;19.27;;;3.53;;
179;SDS011;78;48.788;9.010;2023-07-20T08:27:37;18.00;;;3.77;;
179;SDS011;78;48.788;9.010;2023-07-20T08:30:03;18.50;;;3.60;;
179;SDS011;78;48.788;9.010;2023-07-20T08:32:29;20.23;;;3.50;;
179;SDS011;78;48.788;9.010;2023-07-20T08:34:55;19.13;;;3.60;;
179;SDS011;78;48.788;9.010;2023-07-20T08:37:21;19.17;;;3.50;;
179;SDS011;78;48.788;9.010;2023-07-20T08:39:48;17.20;;;3.33;;
179;SDS011;78;48.788;9.010;2023-07-20T08:42:14;17.23;;;3.70;;
179;SDS011;78;48.788;9.010;2023-07-20T08:44:41;19.80;;;3.77;;
179;SDS011;78;48.788;9.010;2023-07-20T08:47:10;17.77;;;3.50;;
179;SDS011;78;48.788;9.010;2023-07-20T08:49:39;20.00;;;3.47;;
179;SDS011;78;48.788;9.010;2023-07-20T08:52:05;17.40;;;3.60;;
179;SDS011;78;48.788;9.010;2023-07-20T08:54:31;19.43;;;3.50;;
179;SDS011;78;48.788;9.010;2023-07-20T08:56:58;18.93;;;3.70;;
179;SDS011;78;48.788;9.010;2023-07-20T08:59:25;19.40;;;3.73;;
179;SDS011;78;48.788;9.010;2023-07-20T09:01:53;17.37;;;3.50;;
179;SDS011;78;48.788;9.010;2023-07-20T09:04:19;21.47;;;4.60;;
179;SDS011;78;48.788;9.010;2023-07-20T09:06:46;18.10;;;4.30;;
179;SDS011;78;48.788;9.010;2023-07-20T09:09:13;19.30;;;3.93;;
179;SDS011;78;48.788;9.010;2023-07-20T09:11:48;18.70;;;3.27;;
179;SDS011;78;48.788;9.010;2023-07-20T09:14:16;16.27;;;3.20;;
179;SDS011;78;48.788;9.010;2023-07-20T09:16:49;16.90;;;3.03;;
179;SDS011;78;48.788;9.010;2023-07-20T09:19:18;17.13;;;3.33;;
179;SDS011;78;48.788;9.010;2023-07-20T09:21:45;16.20;;;3.20;;
179;SDS011;78;48.788;9.010;2023-07-20T09:24:12;16.80;;;3.00;;
179;SDS011;78;48.788;9.010;2023-07-20T09:26:41;17.90;;;3.43;;
179;SDS011;78;48.788;9.010;2023-07-20T09:29:08;15.43;;;3.00;;
179;SDS011;78;48.788;9.010;2023-07-20T09:31:35;14.80;;;2.70;;
179;SDS011;78;48.788;9.010;2023-07-20T09:34:01;16.30;;;3.17;;
179;SDS011;78;48.788;9.010;2023-07-20T09:36:28;17.10;;;3.50;;
179;SDS011;78;48.788;9.010;2023-07-20T09:38:55;18.60;;;3.17;;
179;SDS011;78;48.788;9.010;2023-07-20T09:41:21;15.20;;;2.90;;
179;SDS011;78;48.788;9.010;2023-07-20T09:43:47;17.37;;;3.30;;
179;SDS011;78;48.788;9.010;2023-07-20T09:46:14;18.40;;;3.30;;
179;SDS011;78;48.788;9.010;2023-07-20T09:48:42;16.70;;;3.00;;
179;SDS011;78;48.788;9.010;2023-07-20T09:51:17;18.37;;;2.90;;
179;SDS011;78;48.788;9.010;2023-07-20T09:53:45;18.40;;;2.97;;
179;SDS011;78;48.788;9.010;2023-07-20T09:56:12;15.40;;;2.80;;
179;SDS011;78;48.788;9.010;2023-07-20T09:58:38;16.70;;;2.70;;
179;SDS011;78;48.788;9.010;2023-07-20T10:01:05;14.50;;;2.70;;
179;SDS011;78;48.788;9.010;2023-07-20T10:03:32;16.17;;;2.80;;
179;SDS011;78;48.788;9.010;2023-07-20T10:06:02;15.27;;;2.80;;
179;SDS011;78;48.788;9.010;2023-07-20T10:08:29;17.00;;;2.77;;
179;SDS011;78;48.788;9.010;2023-07-20T10:10:56;17.33;;;2.97;;
179;SDS011;78;48.788;9.010;2023-07-20T10:13:27;15.33;;;2.87;;
179;SDS011;78;48.788;9.010;2023-07-20T10:15:57;15.50;;;2.90;;
179;SDS011;78;48.788;9.010;2023-07-20T10:18:29;15.40;;;2.73;;
179;SDS011;78;48.788;9.010;2023-07-20T10:20:56;14.60;;;2.60;;
179;SDS011;78;48.788;9.010;2023-07-20T10:23:22;17.43;;;2.73;;
179;SDS011;78;48.788;9.010;2023-07-20T10:25:49;18.07;;;2.70;;
179;SDS011;78;48.788;9.010;2023-07-20T10:28:16;15.83;;;2.87;;
179;SDS011;78;48.788;9.010;2023-07-20T10:30:42;15.47;;;2.73;;
179;SDS011;78;48.788;9.010;2023-07-20T10:33:08;14.30;;;2.50;;
179;SDS011;78;48.788;9.010;2023-07-20T10:38:19;14.70;;;2.60;;
179;SDS011;78;48.788;9.010;2023-07-20T10:40:53;14.13;;;2.30;;
179;SDS011;78;48.788;9.010;2023-07-20T10:43:19;14.40;;;2.40;;
179;SDS011;78;48.788;9.010;2023-07-20T10:45:49;14.63;;;2.53;;
179;SDS011;78;48.788;9.010;2023-07-20T10:48:24;14.00;;;2.47;;
179;SDS011;78;48.788;9.010;2023-07-20T10:51:13;14.40;;;2.20;;
179;SDS011;78;48.788;9.010;2023-07-20T10:53:40;14.63;;;2.20;;
179;SDS011;78;48.788;9.010;2023-07-20T10:56:07;15.00;;;2.30;;
179;SDS011;78;48.788;9.010;2023-07-20T10:58:34;20.90;;;2.73;;
179;SDS011;78;48.788;9.010;2023-07-20T11:01:01;15.03;;;2.50;;
179;SDS011;78;48.788;9.010;2023-07-20T11:03:28;17.10;;;2.73;;
179;SDS011;78;48.788;9.010;2023-07-20T11:05:56;15.47;;;2.67;;
179;SDS011;78;48.788;9.010;2023-07-20T11:08:41;15.50;;;2.50;;
179;SDS011;78;48.788;9.010;2023-07-20T11:11:27;15.63;;;2.60;;
179;SDS011;78;48.788;9.010;2023-07-20T11:13:54;15.80;;;2.80;;
179;SDS011;78;48.788;9.010;2023-07-20T11:16:32;16.50;;;2.50;;
179;SDS011;78;48.788;9.010;2023-07-20T11:18:58;18.30;;;2.50;;
179;SDS011;78;48.788;9.010;2023-07-20T11:21:25;15.50;;;2.67;;
179;SDS011;78;48.788;9.010;2023-07-20T11:23:52;15.70;;;2.50;;
179;SDS011;78;48.788;9.010;2023-07-20T11:26:18;16.60;;;2.33;;
179;SDS011;78;48.788;9.010;2023-07-20T11:28:53;14.50;;;2.50;;
179;SDS011;78;48.788;9.010;2023-07-20T11:31:19;14.83;;;2.10;;
179;SDS011;78;48.788;9.010;2023-07-20T11:33:46;14.00;;;2.30;;
179;SDS011;78;48.788;9.010;2023-07-20T11:36:12;14.53;;;2.40;;
179;SDS011;78;48.788;9.010;2023-07-20T11:38:41;14.70;;;2.37;;
179;SDS011;78;48.788;9.010;2023-07-20T11:41:10;14.70;;;2.50;;
179;SDS011;78;48.788;9.010;2023-07-20T11:43:37;15.10;;;2.57;;
179;SDS011;78;48.788;9.010;2023-07-20T11:46:04;15.00;;;2.60;;
179;SDS011;78;48.788;9.010;2023-07-20T11:48:30;14.20;;;2.30;;
179;SDS011;78;48.788;9.010;2023-07-20T11:50:56;16.30;;;2.40;;
179;SDS011;78;48.788;9.010;2023-07-20T11:53:22;14.13;;;2.30;;
179;SDS011;78;48.788;9.010;2023-07-20T11:55:50;13.93;;;2.30;;
179;SDS011;78;48.788;9.010;2023-07-20T11:58:16;13.90;;;2.30;;
179;SDS011;78;48.788;9.010;2023-07-20T12:00:44;16.63;;;2.50;;
179;SDS011;78;48.788;9.010;2023-07-20T12:03:11;13.90;;;2.20;;
179;SDS011;78;48.788;9.010;2023-07-20T12:05:37;14.60;;;2.50;;
179;SDS011;78;48.788;9.010;2023-07-20T12:08:04;15.30;;;2.43;;
179;SDS011;78;48.788;9.010;2023-07-20T12:10:30;14.17;;;2.40;;
179;SDS011;78;48.788;9.010;2023-07-20T12:13:02;14.97;;;2.47;;
179;SDS011;78;48.788;9.010;2023-07-20T12:15:28;14.50;;;2.50;;
179;SDS011;78;48.788;9.010;2023-07-20T12:17:59;13.73;;;2.30;;
179;SDS011;78;48.788;9.010;2023-07-20T12:22:55;14.87;;;2.50;;
179;SDS011;78;48.788;9.010;2023-07-20T12:25:22;17.50;;;2.37;;
179;SDS011;78;48.788;9.010;2023-07-20T12:27:48;15.07;;;2.60;;
179;SDS011;78;48.788;9.010;2023-07-20T12:30:14;13.90;;;2.40;;
179;SDS011;78;48.788;9.010;2023-07-20T12:32:40;15.80;;;2.57;;
179;SDS011;78;48.788;9.010;2023-07-20T12:35:06;14.53;;;2.00;;
179;SDS011;78;48.788;9.010;2023-07-20T12:37:32;15.93;;;2.40;;
179;SDS011;78;48.788;9.010;2023-07-20T12:39:58;17.43;;;2.50;;
179;SDS011;78;48.788;9.010;2023-07-20T12:42:24;16.17;;;2.40;;
179;SDS011;78;48.788;9.010;2023-07-20T12:44:50;16.67;;;2.40;;
179;SDS011;78;48.788;9.010;2023-07-20T12:47:16;15.07;;;2.47;;
179;SDS011;78;48.788;9.010;2023-07-20T12:49:43;14.70;;;2.43;;
179;SDS011;78;48.788;9.010;2023-07-20T12:52:10;15.80;;;2.20;;
179;SDS011;78;48.788;9.010;2023-07-20T12:54:36;15.40;;;2.20;;
179;SDS011;78;48.788;9.010;2023-07-20T12:57:02;15.20;;;2.40;;
179;SDS011;78;48.788;9.010;2023-07-20T12:59:28;13.73;;;2.17;;
179;SDS011;78;48.788;9.010;2023-07-20T13:01:54;14.10;;;2.20;;
179;SDS011;78;48.788;9.010;2023-07-20T13:04:20;13.40;;;2.13;;
179;SDS011;78;48.788;9.010;2023-07-20T13:06:46;14.00;;;2.30;;
179;SDS011;78;48.788;9.010;2023-07-20T13:09:12;16.80;;;2.70;;
179;SDS011;78;48.788;9.010;2023-07-20T13:11:38;15.83;;;2.33;;
179;SDS011;78;48.788;9.010;2023-07-20T13:14:04;14.40;;;2.37;;
179;SDS011;78;48.788;9.010;2023-07-20T13:16:30;14.10;;;2.30;;
179;SDS011;78;48.788;9.010;2023-07-20T13:18:56;14.70;;;2.60;;
179;SDS011;78;48.788;9.010;2023-07-20T13:21:22;15.23;;;2.47;;
179;SDS011;78;48.788;9.010;2023-07-20T13:23:49;14.87;;;2.57;;
179;SDS011;78;48.788;9.010;2023-07-20T13:26:15;20.90;;;2.50;;
179;SDS011;78;48.788;9.010;2023-07-20T13:28:41;14.27;;;2.33;;
179;SDS011;78;48.788;9.010;2023-07-20T13:31:07;14.50;;;2.20;;
179;SDS011;78;48.788;9.010;2023-07-20T13:33:35;14.97;;;2.30;;
179;SDS011;78;48.788;9.010;2023-07-20T13:36:01;15.57;;;2.20;;
179;SDS011;78;48.788;9.010;2023-07-20T13:38:27;17.50;;;2.20;;
179;SDS011;78;48.788;9.010;2023-07-20T13:40:53;13.80;;;2.10;;
179;SDS011;78;48.788;9.010;2023-07-20T13:43:19;13.90;;;2.20;;
179;SDS011;78;48.788;9.010;2023-07-20T13:45:45;13.87;;;2.10;;
179;SDS011;78;48.788;9.010;2023-07-20T13:48:11;13.07;;;2.00;;
179;SDS011;78;48.788;9.010;2023-07-20T13:50:37;14.00;;;2.40;;
179;SDS011;78;48.788;9.010;2023-07-20T13:53:03;15.30;;;2.10;;
179;SDS011;78;48.788;9.010;2023-07-20T13:55:29;13.37;;;2.00;;
179;SDS011;78;48.788;9.010;2023-07-20T13:57:56;13.77;;;2.20;;
179;SDS011;78;48.788;9.010;2023-07-20T14:00:22;14.03;;;2.20;;
179;SDS011;78;48.788;9.010;2023-07-20T14:02:49;14.03;;;2.20;;
179;SDS011;78;48.788;9.010;2023-07-20T14:05:15;14.23;;;2.40;;
179;SDS011;78;48.788;9.010;2023-07-20T14:07:41;14.23;;;2.23;;
179;SDS011;78;48.788;9.010;2023-07-20T14:10:08;14.90;;;2.30;;
179;SDS011;78;48.788;9.010;2023-07-20T14:12:34;13.40;;;2.00;;
179;SDS011;78;48.788;9.010;2023-07-20T14:15:00;13.40;;;2.20;;
179;SDS011;78;48.788;9.010;2023-07-20T14:17:26;14.10;;;2.13;;
179;SDS011;78;48.788;9.010;2023-07-20T14:19:52;14.20;;;2.30;;
179;SDS011;78;48.788;9.010;2023-07-20T14:22:18;13.40;;;2.20;;
179;SDS011;78;48.788;9.010;2023-07-20T14:24:44;13.17;;;2.07;;
179;SDS011;78;48.788;9.010;2023-07-20T14:27:10;21.97;;;2.27;;
179;SDS011;78;48.788;9.010;2023-07-20T14:29:36;12.77;;;2.00;;
179;SDS011;78;48.788;9.010;2023-07-20T14:32:02;13.30;;;1.97;;
179;SDS011;78;48.788;9.010;2023-07-20T14:34:31;15.90;;;2.10;;
179;SDS011;78;48.788;9.010;2023-07-20T14:36:58;13.63;;;2.03;;
179;SDS011;78;48.788;9.010;2023-07-20T14:39:25;13.70;;;2.20;;
179;SDS011;78;48.788;9.010;2023-07-20T14:41:51;15.63;;;2.03;;
179;SDS011;78;48.788;9.010;2023-07-20T14:44:17;12.80;;;2.07;;
179;SDS011;78;48.788;9.010;2023-07-20T14:46:43;13.80;;;2.00;;
179;SDS011;78;48.788;9.010;2023-07-20T14:49:09;14.57;;;2.00;;
179;SDS011;78;48.788;9.010;2023-07-20T14:51:35;13.10;;;2.10;;
179;SDS011;78;48.788;9.010;2023-07-20T14:54:08;13.20;;;2.17;;
179;SDS011;78;48.788;9.010;2023-07-20T14:56:34;14.53;;;2.13;;
179;SDS011;78;48.788;9.010;2023-07-20T14:59:00;13.63;;;2.00;;
179;SDS011;78;48.788;9.010;2023-07-20T15:01:26;15.27;;;2.00;;
179;SDS011;78;48.788;9.010;2023-07-20T15:03:52;14.00;;;2.20;;
179;SDS011;78;48.788;9.010;2023-07-20T15:06:18;13.20;;;2.03;;
179;SDS011;78;48.788;9.010;2023-07-20T15:08:45;12.63;;;1.90;;
179;SDS011;78;48.788;9.010;2023-07-20T15:11:11;13.37;;;2.03;;
179;SDS011;78;48.788;9.010;2023-07-20T15:13:37;13.50;;;2.20;;
179;SDS011;78;48.788;9.010;2023-07-20T15:16:03;12.90;;;2.10;;
179;SDS011;78;48.788;9.010;2023-07-20T15:18:29;14.50;;;2.10;;
179;SDS011;78;48.788;9.010;2023-07-20T15:20:55;13.23;;;2.10;;
179;SDS011;78;48.788;9.010;2023-07-20T15:23:21;14.53;;;2.07;;
179;SDS011;78;48.788;9.010;2023-07-20T15:25:47;12.93;;;2.00;;
179;SDS011;78;48.788;9.010;2023-07-20T15:28:12;14.00;;;2.20;;
179;SDS011;78;48.788;9.010;2023-07-20T15:30:38;13.27;;;2.37;;
179;SDS011;78;48.788;9.010;2023-07-20T15:33:04;14.83;;;2.30;;
179;SDS011;78;48.788;9.010;2023-07-20T15:35:30;13.30;;;2.03;;
179;SDS011;78;48.788;9.010;2023-07-20T15:37:56;13.10;;;2.00;;
179;SDS011;78;48.788;9.010;2023-07-20T15:40:24;16.07;;;2.50;;
179;SDS011;78;48.788;9.010;2023-07-20T15:42:50;13.20;;;2.20;;
179;SDS011;78;48.788;9.010;2023-07-20T15:45:16;13.17;;;2.27;;
179;SDS011;78;48.788;9.010;2023-07-20T15:47:42;13.53;;;2.10;;
179;SDS011;78;48.788;9.010;2023-07-20T15:50:09;17.63;;;2.17;;
179;SDS011;78;48.788;9.010;2023-07-20T15:52:35;15.70;;;2.10;;